Airport View

Enter AWOS ICAO identifier for current METAR.

ex. KFNL

PASV 261255Z AUTO 00000KT 10SM SCT240 14/08 A3013 RMK AO2 SLP187 T01420084

26 Jun 2019 13:01

Phone: 907-731-9001

Other Area AWOS: PAER - PASL - PALJ - PAIL

TAF PAIL 261135Z 2612/2712 VRB04KT P6SM BKN100